Time;durP1;ratioP1;P1;durP2;ratioP2;P2;SDS_P1;SDS_P2;PMS_P1;PMS_P2;Temp;Humidity;BMP_temperature;BMP_pressure;BME280_temperature;BME280_humidity;BME280_pressure;Samples;Min_cycle;Max_cycle;Signal;HPM_P1;HPM_P2
2023/12/02 00:00:26;;;;;;;15.77;9.32;;;4.30;61.20;6.40;100877.00;;;;5014674;28;20207;-75
2023/12/02 00:02:55;;;;;;;17.00;10.63;;;4.30;61.10;6.40;100864.00;;;;5014355;28;20236;-76
2023/12/02 00:05:22;;;;;;;17.35;10.32;;;4.40;61.20;6.40;100863.00;;;;5013902;28;20435;-75
2023/12/02 00:07:49;;;;;;;16.65;10.15;;;4.40;61.20;6.40;100856.00;;;;5017913;28;20192;-75
2023/12/02 00:10:17;;;;;;;18.15;9.20;;;4.40;61.20;6.40;100863.00;;;;5013153;28;20292;-75
2023/12/02 00:12:44;;;;;;;16.65;9.40;;;4.30;61.20;6.40;100859.00;;;;5008786;28;20201;-75
2023/12/02 00:15:11;;;;;;;15.57;8.98;;;4.40;61.20;6.40;100859.00;;;;5009776;28;20211;-75
2023/12/02 00:17:38;;;;;;;18.17;10.30;;;4.40;61.10;6.40;100855.00;;;;5011018;28;20204;-76
2023/12/02 00:20:07;;;;;;;17.50;9.63;;;4.40;61.10;6.40;100857.00;;;;5014153;28;20659;-76
2023/12/02 00:22:34;;;;;;;17.40;9.80;;;4.40;61.10;6.40;100860.00;;;;5012727;28;20225;-76
2023/12/02 00:25:01;;;;;;;17.25;9.63;;;4.40;61.10;6.40;100863.00;;;;5009543;28;20220;-76
2023/12/02 00:27:28;;;;;;;16.95;9.93;;;4.40;61.10;6.40;100855.00;;;;5017110;28;20200;-75
2023/12/02 00:29:55;;;;;;;17.40;10.00;;;4.40;61.20;6.40;100858.00;;;;5018890;28;20201;-76
2023/12/02 00:32:23;;;;;;;16.35;9.93;;;4.40;61.20;6.40;100856.00;;;;5011364;28;20279;-75
2023/12/02 00:34:50;;;;;;;17.60;10.25;;;4.40;61.30;6.40;100856.00;;;;5013589;28;20662;-75
2023/12/02 00:37:18;;;;;;;18.90;11.15;;;4.40;61.30;6.40;100868.00;;;;5005739;28;20196;-75
2023/12/02 00:39:45;;;;;;;16.77;9.98;;;4.40;61.30;6.50;100868.00;;;;5007349;28;20201;-75
2023/12/02 00:42:12;;;;;;;15.77;9.57;;;4.40;61.20;6.50;100859.00;;;;5018009;28;20588;-75
2023/12/02 00:44:39;;;;;;;15.93;9.45;;;4.40;61.20;6.50;100858.00;;;;5010401;28;20239;-76
2023/12/02 00:47:06;;;;;;;15.35;9.32;;;4.40;61.20;6.50;100853.00;;;;5008837;28;20690;-75
2023/12/02 00:49:33;;;;;;;15.07;9.68;;;4.40;61.20;6.50;100852.00;;;;5009963;28;20204;-75
2023/12/02 00:52:00;;;;;;;15.73;9.43;;;4.40;61.20;6.50;100848.00;;;;5015551;28;20193;-76
2023/12/02 00:54:28;;;;;;;16.48;9.77;;;4.40;61.30;6.50;100857.00;;;;5007918;28;20201;-75
2023/12/02 00:56:55;;;;;;;15.98;9.98;;;4.40;61.30;6.50;100845.00;;;;5009150;28;20207;-76
2023/12/02 00:59:22;;;;;;;16.63;9.80;;;4.40;61.20;6.50;100861.00;;;;5001824;28;20212;-76
2023/12/02 01:01:49;;;;;;;17.02;10.30;;;4.40;61.20;6.50;100857.00;;;;5007788;28;20236;-76
2023/12/02 01:04:16;;;;;;;17.30;10.00;;;4.40;61.20;6.50;100862.00;;;;5007266;28;20220;-75
2023/12/02 01:06:43;;;;;;;16.90;9.68;;;4.40;61.30;6.50;100855.00;;;;5011349;28;20941;-75
2023/12/02 01:09:10;;;;;;;15.95;10.00;;;4.40;61.30;6.50;100860.00;;;;5026016;28;20208;-75
2023/12/02 01:11:39;;;;;;;16.58;9.88;;;4.40;61.30;6.50;100861.00;;;;5011686;28;20193;-75
2023/12/02 01:14:06;;;;;;;15.18;9.55;;;4.40;61.40;6.50;100855.00;;;;5008686;28;20201;-76
2023/12/02 01:16:34;;;;;;;16.88;10.40;;;4.40;61.40;6.50;100850.00;;;;5020263;28;20279;-75
2023/12/02 01:19:01;;;;;;;16.38;10.40;;;4.40;61.40;6.50;100853.00;;;;5008211;28;20200;-76
2023/12/02 01:21:28;;;;;;;18.42;10.77;;;4.40;61.40;6.50;100848.00;;;;5019198;28;20228;-76
2023/12/02 01:23:55;;;;;;;17.20;10.02;;;4.40;61.40;6.50;100854.00;;;;5007639;28;20208;-76
2023/12/02 01:26:23;;;;;;;15.55;9.48;;;4.40;61.30;6.40;100859.00;;;;5009503;28;20235;-76
2023/12/02 01:28:51;;;;;;;16.08;9.55;;;4.30;61.30;6.40;100867.00;;;;5007363;28;20216;-75
2023/12/02 01:31:18;;;;;;;15.25;9.73;;;4.30;61.40;6.40;100864.00;;;;5007195;28;20229;-76
2023/12/02 01:33:45;;;;;;;16.13;9.60;;;4.30;61.40;6.40;100865.00;;;;5008319;28;20192;-76
2023/12/02 01:36:13;;;;;;;18.95;10.23;;;4.30;61.40;6.40;100872.00;;;;5009835;28;20201;-76
2023/12/02 01:38:40;;;;;;;17.05;9.90;;;4.30;61.40;6.40;100885.00;;;;5013258;28;20671;-76
2023/12/02 01:41:07;;;;;;;16.90;10.25;;;4.30;61.40;6.40;100874.00;;;;5015481;28;20201;-75
2023/12/02 01:43:37;;;;;;;16.00;9.50;;;4.30;61.50;6.40;100872.00;;;;5008482;28;20200;-76
2023/12/02 01:46:06;;;;;;;17.80;10.77;;;4.30;61.50;6.40;100881.00;;;;5005160;28;20654;-75
2023/12/02 01:48:36;;;;;;;17.00;10.10;;;4.30;61.60;6.30;100886.00;;;;5002569;28;20213;-75
2023/12/02 01:51:05;;;;;;;17.63;9.90;;;4.30;61.60;6.30;100880.00;;;;5021068;28;20450;-75
2023/12/02 01:53:32;;;;;;;17.05;10.35;;;4.20;61.50;6.30;100888.00;;;;5010126;28;20201;-76
2023/12/02 01:55:59;;;;;;;17.10;10.00;;;4.20;61.40;6.30;100882.00;;;;5008400;28;20204;-75
2023/12/02 01:58:26;;;;;;;18.35;11.00;;;4.20;61.50;6.30;100889.00;;;;5003362;28;20298;-75
2023/12/02 02:00:53;;;;;;;20.20;11.05;;;4.20;61.50;6.30;100880.00;;;;5002495;28;20204;-75
2023/12/02 02:03:22;;;;;;;18.10;10.15;;;4.20;61.50;6.20;100878.00;;;;5008424;28;20212;-75
2023/12/02 02:05:49;;;;;;;17.00;9.95;;;4.20;61.60;6.20;100875.00;;;;5007268;28;20221;-76
2023/12/02 02:08:16;;;;;;;14.77;9.35;;;4.20;61.60;6.20;100881.00;;;;5014034;28;20228;-75
2023/12/02 02:10:44;;;;;;;17.48;9.32;;;4.20;61.60;6.20;100881.00;;;;5026480;28;20576;-75
2023/12/02 02:13:11;;;;;;;18.25;10.57;;;4.10;61.60;6.20;100886.00;;;;5018764;28;20209;-75
2023/12/02 02:15:38;;;;;;;16.08;9.10;;;4.10;61.60;6.10;100875.00;;;;5007025;28;20201;-75
2023/12/02 02:18:05;;;;;;;15.15;9.07;;;4.10;61.60;6.10;100882.00;;;;5013939;28;20579;-76
2023/12/02 02:20:33;;;;;;;16.83;9.88;;;4.10;61.50;6.10;100873.00;;;;5020923;28;20201;-75
2023/12/02 02:23:02;;;;;;;15.45;8.75;;;4.00;61.40;6.00;100876.00;;;;5027162;28;20193;-75
2023/12/02 02:25:29;;;;;;;16.00;9.15;;;4.00;61.30;6.00;100884.00;;;;5010050;28;20224;-75
2023/12/02 02:27:56;;;;;;;15.23;9.50;;;4.00;61.30;5.90;100879.00;;;;5018504;28;20659;-75
2023/12/02 02:30:25;;;;;;;17.75;10.20;;;3.90;61.20;5.90;100880.00;;;;5011209;28;20209;-75
2023/12/02 02:32:52;;;;;;;18.15;10.10;;;3.80;61.20;5.80;100878.00;;;;5011087;28;20671;-76
2023/12/02 02:35:19;;;;;;;19.83;11.60;;;3.80;61.20;5.80;100892.00;;;;5012180;28;20205;-75
2023/12/02 02:37:47;;;;;;;18.40;10.52;;;3.70;61.20;5.70;100882.00;;;;5023006;28;20279;-75
2023/12/02 02:40:16;;;;;;;17.20;9.82;;;3.70;61.30;5.70;100885.00;;;;5029421;28;20192;-75
2023/12/02 02:42:43;;;;;;;16.10;9.75;;;3.60;61.30;5.60;100879.00;;;;5011241;28;20194;-75
2023/12/02 02:45:10;;;;;;;15.13;9.82;;;3.60;61.30;5.60;100881.00;;;;5009462;28;20225;-75
2023/12/02 02:47:37;;;;;;;17.35;10.05;;;3.60;61.40;5.50;100881.00;;;;5018520;28;20573;-75
2023/12/02 02:50:06;;;;;;;16.48;9.80;;;3.50;61.40;5.50;100879.00;;;;5012034;28;20196;-75
2023/12/02 02:52:33;;;;;;;19.75;11.13;;;3.50;61.40;5.50;100888.00;;;;5010874;28;20683;-74
2023/12/02 02:55:00;;;;;;;18.67;11.20;;;3.40;61.40;5.40;100878.00;;;;5007863;28;20255;-74
2023/12/02 02:57:28;;;;;;;17.02;9.95;;;3.40;61.40;5.40;100888.00;;;;5023823;28;20196;-75
2023/12/02 02:59:55;;;;;;;20.42;11.52;;;3.30;61.40;5.30;100878.00;;;;5023919;28;20196;-75
2023/12/02 03:02:23;;;;;;;20.10;10.55;;;3.30;62.20;5.30;100889.00;;;;5010798;28;20232;-75
2023/12/02 03:04:50;;;;;;;18.02;10.13;;;3.20;61.50;5.30;100888.00;;;;5019100;28;20694;-74
2023/12/02 03:07:17;;;;;;;18.00;10.30;;;3.20;61.60;5.30;100882.00;;;;5008781;28;21062;-74
2023/12/02 03:09:44;;;;;;;17.77;10.18;;;3.20;61.70;5.20;100884.00;;;;5009334;28;20204;-75
2023/12/02 03:12:12;;;;;;;18.10;10.63;;;3.10;61.70;5.20;100887.00;;;;5014578;28;20691;-75
2023/12/02 03:14:40;;;;;;;16.45;10.13;;;3.10;62.00;5.20;100893.00;;;;5021855;28;20205;-74
2023/12/02 03:17:07;;;;;;;15.50;8.77;;;3.10;62.00;5.30;100896.00;;;;5010164;28;20231;-75
2023/12/02 03:19:34;;;;;;;16.90;9.27;;;3.10;62.20;5.30;100892.00;;;;5008457;28;20216;-74
2023/12/02 03:22:04;;;;;;;15.00;9.52;;;3.10;62.30;5.30;100889.00;;;;5010201;28;20193;-74
2023/12/02 03:24:31;;;;;;;16.85;9.57;;;3.20;62.50;5.30;100881.00;;;;5008046;28;20205;-75
2023/12/02 03:26:58;;;;;;;16.67;10.05;;;3.20;62.60;5.30;100892.00;;;;5006131;28;20208;-74
2023/12/02 03:29:25;;;;;;;18.60;10.48;;;3.20;62.50;5.30;100890.00;;;;5013924;28;20663;-74
2023/12/02 03:31:53;;;;;;;15.98;9.75;;;3.20;62.60;5.40;100883.00;;;;5014925;28;20200;-74
2023/12/02 03:34:20;;;;;;;17.17;9.57;;;3.20;62.60;5.40;100878.00;;;;5027342;28;20207;-74
2023/12/02 03:36:47;;;;;;;17.02;10.13;;;3.30;62.70;5.40;100878.00;;;;5016529;28;20204;-74
2023/12/02 03:39:15;;;;;;;17.70;10.88;;;3.30;62.80;5.40;100883.00;;;;5009565;28;20193;-75
2023/12/02 03:41:43;;;;;;;18.42;10.52;;;3.30;62.70;5.40;100875.00;;;;5009331;28;20208;-75
2023/12/02 03:44:11;;;;;;;16.60;10.40;;;3.40;62.80;5.50;100875.00;;;;5008914;28;20201;-75
2023/12/02 03:46:38;;;;;;;16.17;9.60;;;3.40;62.70;5.50;100877.00;;;;5010164;28;20209;-75
2023/12/02 03:49:06;;;;;;;17.75;10.05;;;3.40;62.70;5.50;100867.00;;;;5017470;28;20203;-74
2023/12/02 03:51:33;;;;;;;16.67;9.63;;;3.40;62.70;5.50;100880.00;;;;5019301;28;20197;-75
2023/12/02 03:54:01;;;;;;;17.48;10.10;;;3.40;62.60;5.60;100877.00;;;;5010504;28;20577;-75
2023/12/02 03:56:28;;;;;;;15.73;9.45;;;3.50;62.60;5.60;100881.00;;;;5014951;28;20266;-75
2023/12/02 03:58:55;;;;;;;15.45;9.38;;;3.50;62.70;5.60;100882.00;;;;5012861;28;20200;-75
2023/12/02 04:01:22;;;;;;;16.95;9.63;;;3.50;62.70;5.60;100877.00;;;;5012928;28;20240;-75
2023/12/02 04:03:49;;;;;;;17.88;9.77;;;3.50;62.70;5.60;100878.00;;;;5022464;28;20266;-74
2023/12/02 04:06:18;;;;;;;17.35;10.55;;;3.50;62.60;5.60;100880.00;;;;5009233;28;20236;-75
2023/12/02 04:08:45;;;;;;;18.00;10.52;;;3.60;62.50;5.70;100882.00;;;;5009756;28;20201;-75
2023/12/02 04:11:11;;;;;;;15.52;9.20;;;3.60;62.50;5.70;100882.00;;;;5011893;28;20201;-75
2023/12/02 04:13:38;;;;;;;17.75;9.98;;;3.60;62.50;5.70;100885.00;;;;5012542;28;20578;-74
2023/12/02 04:16:07;;;;;;;15.73;10.35;;;3.60;62.40;5.70;100889.00;;;;5010548;28;20219;-75
2023/12/02 04:18:34;;;;;;;16.63;9.50;;;3.60;62.40;5.70;100892.00;;;;5008073;28;20209;-75
2023/12/02 04:21:01;;;;;;;15.57;9.00;;;3.60;62.50;5.70;100897.00;;;;5009778;28;20197;-75
2023/12/02 04:23:29;;;;;;;16.70;9.57;;;3.60;62.50;5.70;100899.00;;;;5009236;28;20189;-75
2023/12/02 04:25:56;;;;;;;16.52;9.25;;;3.60;62.40;5.70;100904.00;;;;5003702;28;20225;-75
2023/12/02 04:28:23;;;;;;;17.48;10.27;;;3.70;62.50;5.70;100905.00;;;;5006084;28;20201;-75
2023/12/02 04:30:50;;;;;;;16.83;10.35;;;3.70;62.40;5.70;100914.00;;;;5008701;28;20216;-75
2023/12/02 04:33:17;;;;;;;16.52;10.02;;;3.70;62.30;5.70;100912.00;;;;5009090;28;20223;-75
2023/12/02 04:35:45;;;;;;;16.35;8.60;;;3.60;62.30;5.70;100915.00;;;;5008791;28;20197;-75
2023/12/02 04:38:12;;;;;;;14.65;9.15;;;3.60;62.30;5.70;100913.00;;;;5008490;28;20697;-76
2023/12/02 04:40:41;;;;;;;16.63;9.07;;;3.70;62.40;5.70;100918.00;;;;5008609;28;20205;-75
2023/12/02 04:43:08;;;;;;;16.48;9.73;;;3.70;62.50;5.80;100920.00;;;;5009998;28;20204;-75
2023/12/02 04:45:34;;;;;;;15.95;9.60;;;3.70;62.50;5.80;100930.00;;;;5009664;28;20216;-74
2023/12/02 04:48:01;;;;;;;14.57;9.48;;;3.70;62.50;5.80;100922.00;;;;5010378;28;20201;-75
2023/12/02 04:50:28;;;;;;;16.13;10.25;;;3.70;62.60;5.80;100934.00;;;;5028253;28;20200;-74
2023/12/02 04:52:55;;;;;;;15.57;9.27;;;3.70;62.70;5.80;100931.00;;;;5009021;28;20265;-75
2023/12/02 04:55:22;;;;;;;15.98;9.65;;;3.70;62.60;5.80;100939.00;;;;5008926;28;20209;-76
2023/12/02 04:57:51;;;;;;;17.55;10.20;;;3.70;62.70;5.80;100930.00;;;;5019696;28;20578;-75
2023/12/02 05:00:18;;;;;;;18.10;10.60;;;3.70;62.70;5.80;100934.00;;;;5004636;28;20671;-75
2023/12/02 05:02:45;;;;;;;16.75;10.18;;;3.70;62.70;5.90;100942.00;;;;5027070;28;20228;-75
2023/12/02 05:05:13;;;;;;;17.00;10.20;;;3.70;62.70;5.90;100946.00;;;;5014340;28;20295;-75
2023/12/02 05:07:40;;;;;;;16.63;10.10;;;3.70;62.80;5.90;100946.00;;;;5027944;28;20220;-75
2023/12/02 05:10:08;;;;;;;17.73;9.93;;;3.80;62.80;5.90;100950.00;;;;5009181;28;20243;-75
2023/12/02 05:12:36;;;;;;;18.27;11.02;;;3.80;62.80;5.90;100939.00;;;;5012463;28;20550;-75
2023/12/02 05:15:05;;;;;;;15.52;9.68;;;3.80;62.90;5.90;100945.00;;;;5008109;28;20254;-75
2023/12/02 05:17:33;;;;;;;18.73;10.90;;;3.80;62.90;6.00;100953.00;;;;5009056;28;20193;-74
2023/12/02 05:20:00;;;;;;;17.92;10.43;;;3.80;62.90;6.00;100946.00;;;;5010138;28;20720;-74
2023/12/02 05:22:27;;;;;;;16.88;10.45;;;3.80;62.90;6.00;100948.00;;;;5008245;28;20193;-75
2023/12/02 05:24:54;;;;;;;16.20;9.18;;;3.80;63.00;6.00;100952.00;;;;5006458;28;20211;-75
2023/12/02 05:27:21;;;;;;;20.50;10.55;;;3.90;63.00;6.00;100953.00;;;;5009023;28;20579;-75
2023/12/02 05:29:48;;;;;;;18.13;10.35;;;3.90;63.00;6.00;100955.00;;;;5016388;28;20585;-76
2023/12/02 05:32:17;;;;;;;17.08;10.15;;;3.90;62.80;6.00;100951.00;;;;5007952;28;20601;-74
2023/12/02 05:34:44;;;;;;;17.00;9.93;;;3.90;62.80;6.00;100951.00;;;;5009734;28;20207;-75
2023/12/02 05:37:11;;;;;;;17.85;10.63;;;3.90;62.80;6.00;100960.00;;;;5006775;28;20201;-75
2023/12/02 05:39:37;;;;;;;25.58;11.65;;;3.90;62.70;6.00;100952.00;;;;5006113;28;20204;-74
2023/12/02 05:42:05;;;;;;;16.42;10.30;;;3.90;62.70;6.00;100959.00;;;;5025835;28;20621;-75
2023/12/02 05:44:32;;;;;;;17.30;9.75;;;3.90;62.70;6.00;100959.00;;;;4998552;28;20231;-75
2023/12/02 05:46:59;;;;;;;16.13;9.55;;;3.90;62.60;6.00;100965.00;;;;4999905;28;20218;-75
2023/12/02 05:49:28;;;;;;;15.65;9.30;;;3.90;62.50;6.00;100972.00;;;;4998575;28;20197;-75
2023/12/02 05:51:56;;;;;;;18.75;10.60;;;3.90;62.50;6.00;100970.00;;;;5005161;28;20236;-76
2023/12/02 05:54:23;;;;;;;17.90;10.40;;;3.90;62.40;6.00;100968.00;;;;5001009;28;20244;-76
2023/12/02 05:56:52;;;;;;;16.17;9.50;;;3.90;62.30;5.90;100971.00;;;;5002606;28;20216;-76
2023/12/02 05:59:19;;;;;;;18.30;10.70;;;3.90;62.20;5.90;100970.00;;;;5000874;28;20640;-75
2023/12/02 06:01:46;;;;;;;17.85;10.80;;;3.80;62.10;5.80;100960.00;;;;4998506;28;20237;-76
2023/12/02 06:04:13;;;;;;;14.90;8.88;;;3.80;62.10;5.80;100959.00;;;;5005271;28;20201;-75
2023/12/02 06:06:46;;;;;;;19.75;10.45;;;3.70;62.00;5.70;100957.00;;;;5001025;28;20224;-76
2023/12/02 06:09:13;;;;;;;17.77;10.00;;;3.70;62.00;5.70;100962.00;;;;5005001;28;20654;-76
2023/12/02 06:11:40;;;;;;;18.30;10.90;;;3.70;62.00;5.70;100967.00;;;;5005675;28;20212;-76
2023/12/02 06:14:07;;;;;;;16.20;9.23;;;3.60;61.90;5.60;100972.00;;;;5003207;28;20678;-76
2023/12/02 06:16:35;;;;;;;18.55;10.35;;;3.60;61.90;5.60;100978.00;;;;5002943;28;20202;-76
2023/12/02 06:19:02;;;;;;;17.13;10.10;;;3.50;61.90;5.50;100979.00;;;;5002394;28;20271;-76
2023/12/02 06:21:29;;;;;;;17.88;10.68;;;3.40;61.80;5.50;100985.00;;;;4997803;28;20197;-76
2023/12/02 06:23:57;;;;;;;16.77;10.05;;;3.40;61.90;5.40;100987.00;;;;5004807;28;20197;-75
2023/12/02 06:26:24;;;;;;;18.20;10.82;;;3.40;62.00;5.40;100990.00;;;;5002290;28;20228;-75
2023/12/02 06:28:51;;;;;;;16.63;10.00;;;3.30;62.00;5.40;100990.00;;;;5003327;28;20582;-76
2023/12/02 06:31:18;;;;;;;18.17;10.30;;;3.30;62.10;5.30;100993.00;;;;5002931;28;20193;-76
2023/12/02 06:33:45;;;;;;;17.25;9.85;;;3.30;62.10;5.30;100989.00;;;;5003330;28;20212;-75
2023/12/02 06:36:13;;;;;;;17.42;10.10;;;3.20;62.10;5.20;100987.00;;;;5005054;28;20201;-75
2023/12/02 06:38:40;;;;;;;18.15;10.65;;;3.20;62.10;5.20;100993.00;;;;5000835;28;20216;-75
2023/12/02 06:41:09;;;;;;;19.50;10.77;;;3.20;62.10;5.20;100992.00;;;;5004237;28;20201;-75
2023/12/02 06:43:36;;;;;;;17.50;9.93;;;3.10;62.00;5.10;101003.00;;;;5000381;28;20194;-75
2023/12/02 06:46:03;;;;;;;17.90;10.45;;;3.10;62.00;5.10;101010.00;;;;5005657;28;20213;-76
2023/12/02 06:48:30;;;;;;;18.35;11.23;;;3.10;62.10;5.10;101010.00;;;;5000521;28;20209;-76
2023/12/02 06:50:57;;;;;;;17.38;11.10;;;3.00;62.10;5.00;101004.00;;;;5001529;28;20220;-75
2023/12/02 06:53:24;;;;;;;20.95;11.82;;;3.00;62.10;5.00;101003.00;;;;5002226;28;20204;-75
2023/12/02 06:55:51;;;;;;;17.35;10.23;;;2.90;62.10;5.00;100999.00;;;;5004110;28;20223;-76
2023/12/02 06:58:20;;;;;;;19.73;11.77;;;2.90;62.10;4.90;101008.00;;;;5001859;28;20193;-76
2023/12/02 07:00:47;;;;;;;18.35;10.50;;;2.90;62.20;4.90;101027.00;;;;5006571;28;20209;-76
2023/12/02 07:03:14;;;;;;;20.30;11.90;;;2.80;62.20;4.90;101041.00;;;;5007913;28;20201;-76
2023/12/02 07:05:41;;;;;;;22.02;11.63;;;2.80;62.20;4.90;101039.00;;;;5004480;28;20216;-76
2023/12/02 07:08:08;;;;;;;21.63;12.10;;;2.80;62.30;4.80;101049.00;;;;5009159;28;20228;-75
2023/12/02 07:10:35;;;;;;;20.38;11.63;;;2.70;62.40;4.80;101040.00;;;;5011174;28;20255;-75
2023/12/02 07:13:02;;;;;;;19.23;11.82;;;2.70;62.50;4.80;101056.00;;;;5015430;28;20197;-75
2023/12/02 07:15:30;;;;;;;20.58;11.23;;;2.70;62.60;4.80;101055.00;;;;5014983;28;20284;-75
2023/12/02 07:17:58;;;;;;;19.95;11.50;;;2.70;62.70;4.80;101066.00;;;;5013784;28;20197;-76
2023/12/02 07:20:25;;;;;;;21.02;10.65;;;2.70;62.80;4.80;101054.00;;;;5010764;28;20279;-75
2023/12/02 07:22:53;;;;;;;23.23;11.93;;;2.70;62.70;4.80;101067.00;;;;5009616;28;20205;-75
2023/12/02 07:25:20;;;;;;;21.63;12.57;;;2.70;62.80;4.90;101064.00;;;;5009721;28;20287;-75
2023/12/02 07:27:48;;;;;;;21.10;11.90;;;2.70;62.90;4.90;101066.00;;;;5009602;28;20240;-75
2023/12/02 07:30:15;;;;;;;21.02;11.90;;;2.70;62.90;4.90;101064.00;;;;5024527;28;20201;-75
2023/12/02 07:32:46;;;;;;;19.77;10.77;;;2.70;62.90;4.90;101064.00;;;;5014860;28;20217;-75
2023/12/02 07:35:13;;;;;;;21.45;11.38;;;2.80;63.00;4.90;101074.00;;;;5009607;28;20201;-76
2023/12/02 07:37:39;;;;;;;21.52;12.02;;;2.70;62.90;4.90;101075.00;;;;5008652;28;20579;-75
2023/12/02 07:40:08;;;;;;;21.73;11.90;;;2.80;62.90;4.90;101071.00;;;;5019631;28;20196;-75
2023/12/02 07:42:35;;;;;;;21.23;10.90;;;2.80;62.90;4.90;101079.00;;;;5014362;28;20669;-75
2023/12/02 07:45:02;;;;;;;19.05;11.00;;;2.70;62.80;4.90;101075.00;;;;5020682;28;20695;-75
2023/12/02 07:47:29;;;;;;;22.45;12.60;;;2.80;62.90;4.90;101077.00;;;;5020695;28;20224;-75
2023/12/02 07:49:57;;;;;;;17.38;10.85;;;2.80;62.90;4.80;101079.00;;;;5021146;28;20302;-75
2023/12/02 07:52:24;;;;;;;21.50;11.75;;;2.80;62.90;4.90;101080.00;;;;5013900;28;20193;-75
2023/12/02 07:54:52;;;;;;;19.85;11.00;;;2.80;63.00;4.90;101076.00;;;;5013024;28;20236;-75
2023/12/02 07:57:19;;;;;;;21.15;11.25;;;2.80;63.00;4.80;101087.00;;;;5026405;28;20200;-75
2023/12/02 07:59:46;;;;;;;19.00;11.48;;;2.80;63.10;4.90;101088.00;;;;5004584;28;20192;-75
2023/12/02 08:02:13;;;;;;;19.85;12.00;;;2.80;63.10;4.80;101101.00;;;;5020027;28;20714;-75
2023/12/02 08:04:40;;;;;;;20.98;11.77;;;2.80;63.10;4.90;101104.00;;;;5013528;28;20196;-75
2023/12/02 08:07:09;;;;;;;22.38;11.95;;;2.80;63.10;4.90;101100.00;;;;5007158;28;20229;-76
2023/12/02 08:09:35;;;;;;;20.65;11.70;;;2.80;63.20;4.90;101107.00;;;;5011737;28;20197;-75
2023/12/02 08:12:02;;;;;;;17.80;10.60;;;2.80;63.20;4.90;101111.00;;;;5010431;28;20207;-75
2023/12/02 08:14:29;;;;;;;22.50;12.65;;;2.80;63.20;4.90;101119.00;;;;5011814;28;20578;-75
2023/12/02 08:16:57;;;;;;;20.52;12.00;;;2.80;63.30;4.90;101093.00;;;;5003894;28;20208;-75
2023/12/02 08:19:23;;;;;;;21.70;12.18;;;2.80;63.30;4.90;101124.00;;;;5009019;28;20203;-75
2023/12/02 08:21:50;;;;;;;21.95;11.25;;;2.80;63.30;5.00;101122.00;;;;5009047;28;20204;-75
2023/12/02 08:24:19;;;;;;;19.42;11.18;;;2.90;63.50;5.00;101128.00;;;;5008184;28;20207;-75
2023/12/02 08:26:47;;;;;;;21.30;12.20;;;2.90;63.50;5.00;101125.00;;;;5009532;28;20283;-75
2023/12/02 08:29:14;;;;;;;22.48;12.43;;;2.90;63.50;5.10;101125.00;;;;5020511;28;20204;-75
2023/12/02 08:31:41;;;;;;;23.75;12.70;;;2.90;63.50;5.10;101137.00;;;;4995695;28;20203;-75
2023/12/02 08:34:08;;;;;;;21.10;12.07;;;2.90;63.60;5.20;101139.00;;;;5009134;28;20563;-75
2023/12/02 08:36:35;;;;;;;20.90;12.25;;;3.00;63.70;5.20;101136.00;;;;5008305;28;20208;-78
2023/12/02 08:39:04;;;;;;;22.33;11.90;;;3.00;63.80;5.20;101141.00;;;;5023403;28;20207;-75
2023/12/02 08:41:33;;;;;;;18.90;10.82;;;3.10;63.90;5.30;101142.00;;;;5025057;28;20208;-78
2023/12/02 08:44:00;;;;;;;21.80;10.77;;;3.10;64.00;5.30;101139.00;;;;5014172;28;20284;-75
2023/12/02 08:46:27;;;;;;;19.00;11.10;;;3.20;64.00;5.40;101146.00;;;;5016735;28;20294;-75
2023/12/02 08:48:54;;;;;;;22.35;13.20;;;3.20;63.90;5.40;101147.00;;;;5000421;28;20224;-75
2023/12/02 08:51:21;;;;;;;21.92;11.93;;;3.30;63.90;5.50;101148.00;;;;5007318;28;20675;-75
2023/12/02 08:53:52;;;;;;;24.05;12.50;;;3.30;64.00;5.50;101145.00;;;;5009166;28;20197;-76
2023/12/02 08:56:19;;;;;;;22.80;12.40;;;3.40;64.00;5.60;101137.00;;;;5009179;28;20212;-75
2023/12/02 08:58:48;;;;;;;23.73;13.32;;;3.50;64.10;5.60;101137.00;;;;5016590;28;20215;-75
2023/12/02 09:01:16;;;;;;;22.80;11.98;;;3.50;64.10;5.70;101136.00;;;;5008577;28;20225;-76
2023/12/02 09:03:43;;;;;;;20.42;11.40;;;3.60;64.20;5.80;101133.00;;;;5008587;28;20200;-75
2023/12/02 09:06:11;;;;;;;18.95;11.50;;;3.60;64.10;5.80;101144.00;;;;5006722;28;20578;-75
2023/12/02 09:08:38;;;;;;;23.63;13.38;;;3.70;64.10;5.90;101148.00;;;;5005974;28;20730;-75
2023/12/02 09:11:05;;;;;;;23.05;12.93;;;3.70;64.10;5.90;101152.00;;;;5010744;28;20263;-75
2023/12/02 09:13:46;;;;;;;21.30;11.85;;;3.80;64.10;5.90;101149.00;;;;5015425;28;20330;-74
2023/12/02 09:16:20;;;;;;;22.20;11.85;;;3.90;64.10;6.00;101149.00;;;;5011912;28;20280;-76
2023/12/02 09:18:47;;;;;;;20.75;11.65;;;3.90;64.10;6.10;101159.00;;;;5004879;28;20246;-75
2023/12/02 09:21:43;;;;;;;20.98;11.43;;;4.00;64.10;6.10;101158.00;;;;5002012;28;20565;-77
2023/12/02 09:24:40;;;;;;;19.00;11.50;;;4.00;64.00;6.10;101166.00;;;;5000358;28;20201;-77
2023/12/02 09:27:08;;;;;;;20.27;11.35;;;4.10;63.90;6.20;101156.00;;;;4997088;28;20315;-76
2023/12/02 09:29:38;;;;;;;21.98;12.30;;;4.20;63.90;6.30;101170.00;;;;5006747;28;20574;-76
2023/12/02 09:32:40;;;;;;;21.02;11.70;;;4.20;63.80;6.20;101171.00;;;;5014787;28;20281;-76
2023/12/02 09:35:08;;;;;;;20.67;11.60;;;4.20;63.70;6.40;101185.00;;;;5010590;28;20196;-76
2023/12/02 09:37:56;;;;;;;21.25;11.50;;;4.30;63.60;6.30;101186.00;;;;5003832;28;20208;-76
2023/12/02 09:40:48;;;;;;;22.17;11.93;;;4.40;63.60;6.30;101182.00;;;;5005125;28;20196;-76
2023/12/02 09:43:34;;;;;;;19.85;10.85;;;4.40;63.50;6.30;101188.00;;;;5008334;28;20207;-76
2023/12/02 09:46:33;;;;;;;21.52;10.88;;;4.40;63.40;6.40;101196.00;;;;5005375;28;20382;-74
2023/12/02 09:49:32;;;;;;;24.02;12.75;;;4.40;63.30;6.40;101190.00;;;;5001987;28;20228;-76
2023/12/02 09:52:47;;;;;;;20.20;10.75;;;4.50;63.40;6.50;101186.00;;;;5000808;28;20255;-76
2023/12/02 09:55:22;;;;;;;21.38;11.13;;;4.50;63.50;6.60;101188.00;;;;5002570;28;20211;-76
2023/12/02 09:58:01;;;;;;;19.38;10.38;;;4.60;63.60;6.70;101186.00;;;;5002822;28;20225;-77
2023/12/02 10:00:40;;;;;;;22.23;12.57;;;4.60;64.30;6.70;101194.00;;;;5008264;28;20208;-75
2023/12/02 10:03:48;;;;;;;25.15;12.48;;;4.70;63.70;6.80;101191.00;;;;5011050;28;20193;-76
2023/12/02 10:06:44;;;;;;;23.45;11.88;;;4.70;63.70;6.90;101193.00;;;;5008681;28;20555;-75
2023/12/02 10:09:43;;;;;;;22.08;12.02;;;4.80;63.60;6.90;101194.00;;;;5001189;28;20263;-76
2023/12/02 10:12:33;;;;;;;22.23;12.20;;;4.90;63.60;7.00;101186.00;;;;5007122;28;20193;-76
2023/12/02 10:15:05;;;;;;;19.58;11.38;;;5.00;63.70;7.20;101193.00;;;;5006810;28;20193;-75
2023/12/02 10:17:38;;;;;;;23.83;12.95;;;5.00;63.70;7.20;101181.00;;;;5007928;28;20573;-76
2023/12/02 10:20:12;;;;;;;22.08;12.65;;;5.10;63.80;7.30;101184.00;;;;5009077;28;20201;-75
2023/12/02 10:22:46;;;;;;;23.42;13.07;;;5.20;63.60;7.40;101191.00;;;;5009275;28;20682;-75
2023/12/02 10:25:31;;;;;;;23.58;12.65;;;5.30;63.60;7.40;101187.00;;;;5027553;28;20202;-76
2023/12/02 10:28:12;;;;;;;21.05;12.20;;;5.30;63.40;7.50;101188.00;;;;5009095;28;20220;-75
2023/12/02 10:30:50;;;;;;;22.92;12.25;;;5.40;63.30;7.50;101195.00;;;;5009821;28;20208;-75
2023/12/02 10:33:28;;;;;;;19.77;11.35;;;5.50;63.30;7.50;101190.00;;;;5017576;28;20213;-75
2023/12/02 10:36:04;;;;;;;21.00;11.57;;;5.50;63.10;7.60;101188.00;;;;5005283;28;20259;-75
2023/12/02 10:38:53;;;;;;;20.92;10.77;;;5.60;62.90;7.60;101185.00;;;;5003014;28;20961;-75
2023/12/02 10:41:30;;;;;;;22.75;11.85;;;5.60;62.90;7.60;101180.00;;;;5022814;28;20200;-75
2023/12/02 10:44:05;;;;;;;23.05;12.93;;;5.70;62.90;7.70;101194.00;;;;5012785;28;20211;-75
2023/12/02 10:46:34;;;;;;;22.58;12.90;;;5.70;62.80;7.80;101185.00;;;;5007200;28;20319;-74
2023/12/02 10:49:03;;;;;;;21.67;12.30;;;5.70;62.70;7.80;101180.00;;;;5020460;28;20231;-74
2023/12/02 10:51:39;;;;;;;23.90;13.07;;;5.70;62.50;7.80;101176.00;;;;5011801;28;20205;-75
2023/12/02 10:54:13;;;;;;;20.23;12.13;;;5.80;62.50;7.90;101173.00;;;;5007808;28;20196;-74
2023/12/02 10:56:40;;;;;;;20.08;12.30;;;5.80;62.40;7.90;101164.00;;;;5018217;28;20204;-75
2023/12/02 10:59:09;;;;;;;23.52;13.45;;;5.80;62.30;8.00;101169.00;;;;5008218;28;20212;-75